sensor_id;sensor_type;location;lat;lon;timestamp;P1;durP1;ratioP1;P2;durP2;ratioP2
53666;SDS011;39568;51.026;5.468;2023-08-06T00:00:22;3.30;;;2.00;;
53666;SDS011;39568;51.026;5.468;2023-08-06T00:02:50;4.15;;;2.10;;
53666;SDS011;39568;51.026;5.468;2023-08-06T00:05:17;5.70;;;1.95;;
53666;SDS011;39568;51.026;5.468;2023-08-06T00:07:46;5.63;;;1.73;;
53666;SDS011;39568;51.026;5.468;2023-08-06T00:10:12;4.82;;;1.67;;
53666;SDS011;39568;51.026;5.468;2023-08-06T00:12:39;7.57;;;2.00;;
53666;SDS011;39568;51.026;5.468;2023-08-06T00:15:06;7.18;;;1.88;;
53666;SDS011;39568;51.026;5.468;2023-08-06T00:17:33;3.88;;;1.55;;
53666;SDS011;39568;51.026;5.468;2023-08-06T00:20:02;5.22;;;1.80;;
53666;SDS011;39568;51.026;5.468;2023-08-06T00:22:31;5.53;;;1.50;;
53666;SDS011;39568;51.026;5.468;2023-08-06T00:24:58;3.50;;;1.38;;
53666;SDS011;39568;51.026;5.468;2023-08-06T00:27:24;3.38;;;1.42;;
53666;SDS011;39568;51.026;5.468;2023-08-06T00:29:51;4.82;;;1.63;;
53666;SDS011;39568;51.026;5.468;2023-08-06T00:32:18;2.42;;;1.40;;
53666;SDS011;39568;51.026;5.468;2023-08-06T00:34:45;5.38;;;1.52;;
53666;SDS011;39568;51.026;5.468;2023-08-06T00:37:13;5.43;;;1.90;;
53666;SDS011;39568;51.026;5.468;2023-08-06T00:39:39;6.55;;;1.60;;
53666;SDS011;39568;51.026;5.468;2023-08-06T00:42:06;7.88;;;2.15;;
53666;SDS011;39568;51.026;5.468;2023-08-06T00:44:33;3.30;;;1.70;;
53666;SDS011;39568;51.026;5.468;2023-08-06T00:46:59;4.50;;;1.25;;
53666;SDS011;39568;51.026;5.468;2023-08-06T00:49:27;3.38;;;1.30;;
53666;SDS011;39568;51.026;5.468;2023-08-06T00:51:54;5.90;;;1.90;;
53666;SDS011;39568;51.026;5.468;2023-08-06T00:54:22;2.40;;;1.40;;
53666;SDS011;39568;51.026;5.468;2023-08-06T00:56:50;4.00;;;0.95;;
53666;SDS011;39568;51.026;5.468;2023-08-06T00:59:17;3.15;;;1.27;;
53666;SDS011;39568;51.026;5.468;2023-08-06T01:01:44;4.05;;;1.27;;
53666;SDS011;39568;51.026;5.468;2023-08-06T01:04:11;6.47;;;1.55;;
53666;SDS011;39568;51.026;5.468;2023-08-06T01:06:39;2.35;;;1.33;;
53666;SDS011;39568;51.026;5.468;2023-08-06T01:11:44;8.32;;;1.58;;
53666;SDS011;39568;51.026;5.468;2023-08-06T01:14:21;8.23;;;1.60;;
53666;SDS011;39568;51.026;5.468;2023-08-06T01:16:54;5.82;;;1.67;;
53666;SDS011;39568;51.026;5.468;2023-08-06T01:19:21;3.08;;;1.77;;
53666;SDS011;39568;51.026;5.468;2023-08-06T01:21:49;5.88;;;1.75;;
53666;SDS011;39568;51.026;5.468;2023-08-06T01:24:16;4.82;;;1.20;;
53666;SDS011;39568;51.026;5.468;2023-08-06T01:26:45;6.15;;;1.63;;
53666;SDS011;39568;51.026;5.468;2023-08-06T01:29:22;5.32;;;1.63;;
53666;SDS011;39568;51.026;5.468;2023-08-06T01:31:51;3.58;;;1.40;;
53666;SDS011;39568;51.026;5.468;2023-08-06T01:34:20;5.53;;;1.05;;
53666;SDS011;39568;51.026;5.468;2023-08-06T01:36:50;7.40;;;1.63;;
53666;SDS011;39568;51.026;5.468;2023-08-06T01:39:17;9.45;;;1.80;;
53666;SDS011;39568;51.026;5.468;2023-08-06T01:41:46;8.35;;;2.13;;
53666;SDS011;39568;51.026;5.468;2023-08-06T01:44:12;4.50;;;1.83;;
53666;SDS011;39568;51.026;5.468;2023-08-06T01:46:39;9.52;;;2.05;;
53666;SDS011;39568;51.026;5.468;2023-08-06T01:49:06;9.23;;;3.25;;
53666;SDS011;39568;51.026;5.468;2023-08-06T01:51:33;5.10;;;3.13;;
53666;SDS011;39568;51.026;5.468;2023-08-06T01:54:01;8.13;;;2.85;;
53666;SDS011;39568;51.026;5.468;2023-08-06T01:56:28;5.18;;;3.63;;
53666;SDS011;39568;51.026;5.468;2023-08-06T01:58:55;6.30;;;3.67;;
53666;SDS011;39568;51.026;5.468;2023-08-06T02:01:21;3.85;;;3.47;;
53666;SDS011;39568;51.026;5.468;2023-08-06T02:03:48;4.68;;;3.15;;
53666;SDS011;39568;51.026;5.468;2023-08-06T02:06:15;3.70;;;2.97;;
53666;SDS011;39568;51.026;5.468;2023-08-06T02:08:41;4.35;;;3.22;;
53666;SDS011;39568;51.026;5.468;2023-08-06T02:11:09;10.18;;;3.25;;
53666;SDS011;39568;51.026;5.468;2023-08-06T02:13:36;6.28;;;2.90;;
53666;SDS011;39568;51.026;5.468;2023-08-06T02:16:03;3.50;;;3.03;;
53666;SDS011;39568;51.026;5.468;2023-08-06T02:18:29;7.20;;;2.90;;
53666;SDS011;39568;51.026;5.468;2023-08-06T02:20:56;10.13;;;3.15;;
53666;SDS011;39568;51.026;5.468;2023-08-06T02:23:24;4.80;;;2.80;;
53666;SDS011;39568;51.026;5.468;2023-08-06T02:25:56;5.80;;;2.78;;
53666;SDS011;39568;51.026;5.468;2023-08-06T02:28:25;2.67;;;2.47;;
53666;SDS011;39568;51.026;5.468;2023-08-06T02:30:52;4.88;;;2.25;;
53666;SDS011;39568;51.026;5.468;2023-08-06T02:33:19;2.90;;;2.40;;
53666;SDS011;39568;51.026;5.468;2023-08-06T02:35:45;2.60;;;2.40;;
53666;SDS011;39568;51.026;5.468;2023-08-06T02:38:12;4.47;;;2.65;;
53666;SDS011;39568;51.026;5.468;2023-08-06T02:40:42;4.93;;;2.10;;
53666;SDS011;39568;51.026;5.468;2023-08-06T02:45:38;12.93;;;3.22;;
53666;SDS011;39568;51.026;5.468;2023-08-06T02:48:05;4.35;;;3.00;;
53666;SDS011;39568;51.026;5.468;2023-08-06T02:50:37;8.65;;;2.88;;
53666;SDS011;39568;51.026;5.468;2023-08-06T02:53:04;4.75;;;2.58;;
53666;SDS011;39568;51.026;5.468;2023-08-06T02:55:31;12.77;;;3.58;;
53666;SDS011;39568;51.026;5.468;2023-08-06T02:57:59;11.20;;;2.13;;
53666;SDS011;39568;51.026;5.468;2023-08-06T03:00:26;3.05;;;1.98;;
53666;SDS011;39568;51.026;5.468;2023-08-06T03:02:54;4.60;;;2.42;;
53666;SDS011;39568;51.026;5.468;2023-08-06T03:05:20;9.55;;;2.70;;
53666;SDS011;39568;51.026;5.468;2023-08-06T03:07:47;9.10;;;2.17;;
53666;SDS011;39568;51.026;5.468;2023-08-06T03:10:14;6.95;;;2.50;;
53666;SDS011;39568;51.026;5.468;2023-08-06T03:12:40;4.32;;;2.90;;
53666;SDS011;39568;51.026;5.468;2023-08-06T03:15:08;13.88;;;3.20;;
53666;SDS011;39568;51.026;5.468;2023-08-06T03:17:35;4.07;;;2.10;;
53666;SDS011;39568;51.026;5.468;2023-08-06T03:20:03;2.92;;;2.28;;
53666;SDS011;39568;51.026;5.468;2023-08-06T03:22:31;6.28;;;2.42;;
53666;SDS011;39568;51.026;5.468;2023-08-06T03:24:58;7.97;;;2.28;;
53666;SDS011;39568;51.026;5.468;2023-08-06T03:27:24;4.53;;;2.28;;
53666;SDS011;39568;51.026;5.468;2023-08-06T03:29:51;4.88;;;2.47;;
53666;SDS011;39568;51.026;5.468;2023-08-06T03:32:18;7.15;;;2.67;;
53666;SDS011;39568;51.026;5.468;2023-08-06T03:34:44;5.03;;;2.50;;
53666;SDS011;39568;51.026;5.468;2023-08-06T03:37:13;8.65;;;2.78;;
53666;SDS011;39568;51.026;5.468;2023-08-06T03:39:40;7.78;;;2.53;;
53666;SDS011;39568;51.026;5.468;2023-08-06T03:42:06;2.67;;;2.47;;
53666;SDS011;39568;51.026;5.468;2023-08-06T03:44:33;6.82;;;2.67;;
53666;SDS011;39568;51.026;5.468;2023-08-06T03:46:59;7.55;;;2.40;;
53666;SDS011;39568;51.026;5.468;2023-08-06T03:49:26;4.45;;;2.03;;
53666;SDS011;39568;51.026;5.468;2023-08-06T03:51:53;2.25;;;2.15;;
53666;SDS011;39568;51.026;5.468;2023-08-06T03:54:21;3.08;;;1.85;;
53666;SDS011;39568;51.026;5.468;2023-08-06T03:56:47;3.70;;;1.92;;
53666;SDS011;39568;51.026;5.468;2023-08-06T03:59:14;2.10;;;1.90;;
53666;SDS011;39568;51.026;5.468;2023-08-06T04:01:41;5.38;;;2.30;;
53666;SDS011;39568;51.026;5.468;2023-08-06T04:04:07;9.18;;;2.75;;
53666;SDS011;39568;51.026;5.468;2023-08-06T04:06:34;1.88;;;1.60;;
53666;SDS011;39568;51.026;5.468;2023-08-06T04:09:01;3.45;;;1.95;;
53666;SDS011;39568;51.026;5.468;2023-08-06T04:11:29;4.85;;;1.58;;
53666;SDS011;39568;51.026;5.468;2023-08-06T04:13:55;3.20;;;1.77;;
53666;SDS011;39568;51.026;5.468;2023-08-06T04:16:22;4.20;;;1.27;;
53666;SDS011;39568;51.026;5.468;2023-08-06T04:18:51;1.83;;;1.65;;
53666;SDS011;39568;51.026;5.468;2023-08-06T04:21:18;1.52;;;1.45;;
53666;SDS011;39568;51.026;5.468;2023-08-06T04:23:45;1.80;;;1.17;;
53666;SDS011;39568;51.026;5.468;2023-08-06T04:26:11;1.38;;;1.33;;
53666;SDS011;39568;51.026;5.468;2023-08-06T04:28:39;1.33;;;1.23;;
53666;SDS011;39568;51.026;5.468;2023-08-06T04:31:06;3.40;;;1.15;;
53666;SDS011;39568;51.026;5.468;2023-08-06T04:33:33;1.42;;;1.35;;
53666;SDS011;39568;51.026;5.468;2023-08-06T04:35:59;1.95;;;1.05;;
53666;SDS011;39568;51.026;5.468;2023-08-06T04:38:26;1.48;;;1.38;;
53666;SDS011;39568;51.026;5.468;2023-08-06T04:40:53;1.10;;;1.10;;
53666;SDS011;39568;51.026;5.468;2023-08-06T04:43:20;1.77;;;0.90;;
53666;SDS011;39568;51.026;5.468;2023-08-06T04:45:48;9.50;;;1.25;;
53666;SDS011;39568;51.026;5.468;2023-08-06T04:48:15;2.33;;;1.02;;
53666;SDS011;39568;51.026;5.468;2023-08-06T04:50:45;1.20;;;1.10;;
53666;SDS011;39568;51.026;5.468;2023-08-06T04:53:12;2.15;;;1.60;;
53666;SDS011;39568;51.026;5.468;2023-08-06T04:55:39;5.80;;;1.77;;
53666;SDS011;39568;51.026;5.468;2023-08-06T04:58:06;3.05;;;1.70;;
53666;SDS011;39568;51.026;5.468;2023-08-06T05:00:34;4.50;;;1.75;;
53666;SDS011;39568;51.026;5.468;2023-08-06T05:03:02;2.05;;;1.85;;
53666;SDS011;39568;51.026;5.468;2023-08-06T05:05:29;3.03;;;2.83;;
53666;SDS011;39568;51.026;5.468;2023-08-06T05:07:56;1.83;;;1.73;;
53666;SDS011;39568;51.026;5.468;2023-08-06T05:10:24;5.28;;;2.67;;
53666;SDS011;39568;51.026;5.468;2023-08-06T05:12:51;3.45;;;2.08;;
53666;SDS011;39568;51.026;5.468;2023-08-06T05:15:17;3.90;;;2.30;;
53666;SDS011;39568;51.026;5.468;2023-08-06T05:17:44;7.05;;;2.70;;
53666;SDS011;39568;51.026;5.468;2023-08-06T05:20:12;9.00;;;3.80;;
53666;SDS011;39568;51.026;5.468;2023-08-06T05:22:39;4.45;;;3.55;;
53666;SDS011;39568;51.026;5.468;2023-08-06T05:25:06;5.20;;;3.08;;
53666;SDS011;39568;51.026;5.468;2023-08-06T05:27:33;2.15;;;2.05;;
53666;SDS011;39568;51.026;5.468;2023-08-06T05:30:00;1.98;;;1.80;;
53666;SDS011;39568;51.026;5.468;2023-08-06T05:32:27;6.47;;;1.10;;
53666;SDS011;39568;51.026;5.468;2023-08-06T05:34:53;1.35;;;0.90;;
53666;SDS011;39568;51.026;5.468;2023-08-06T05:37:21;0.55;;;0.55;;
53666;SDS011;39568;51.026;5.468;2023-08-06T05:39:48;0.52;;;0.45;;
53666;SDS011;39568;51.026;5.468;2023-08-06T05:42:15;0.40;;;0.40;;
53666;SDS011;39568;51.026;5.468;2023-08-06T05:44:42;7.55;;;0.82;;
53666;SDS011;39568;51.026;5.468;2023-08-06T05:47:09;2.92;;;0.40;;
53666;SDS011;39568;51.026;5.468;2023-08-06T05:49:35;2.88;;;0.60;;
53666;SDS011;39568;51.026;5.468;2023-08-06T05:52:02;0.60;;;0.38;;
53666;SDS011;39568;51.026;5.468;2023-08-06T05:54:32;2.55;;;0.73;;
53666;SDS011;39568;51.026;5.468;2023-08-06T05:56:59;3.85;;;0.70;;
53666;SDS011;39568;51.026;5.468;2023-08-06T05:59:25;1.20;;;0.50;;
53666;SDS011;39568;51.026;5.468;2023-08-06T06:01:52;1.92;;;0.80;;
53666;SDS011;39568;51.026;5.468;2023-08-06T06:04:19;0.30;;;0.30;;
53666;SDS011;39568;51.026;5.468;2023-08-06T06:06:45;0.70;;;0.70;;
53666;SDS011;39568;51.026;5.468;2023-08-06T06:09:12;1.52;;;1.10;;
53666;SDS011;39568;51.026;5.468;2023-08-06T06:11:40;1.17;;;1.00;;
53666;SDS011;39568;51.026;5.468;2023-08-06T06:14:07;2.45;;;1.60;;
53666;SDS011;39568;51.026;5.468;2023-08-06T06:16:33;2.25;;;2.15;;
53666;SDS011;39568;51.026;5.468;2023-08-06T06:19:00;5.07;;;2.90;;
53666;SDS011;39568;51.026;5.468;2023-08-06T06:21:27;3.42;;;2.53;;
53666;SDS011;39568;51.026;5.468;2023-08-06T06:23:54;6.05;;;3.30;;
53666;SDS011;39568;51.026;5.468;2023-08-06T06:26:21;6.25;;;3.88;;
53666;SDS011;39568;51.026;5.468;2023-08-06T06:28:49;5.85;;;5.45;;
53666;SDS011;39568;51.026;5.468;2023-08-06T06:31:16;5.75;;;5.20;;
53666;SDS011;39568;51.026;5.468;2023-08-06T06:33:43;2.80;;;2.60;;
53666;SDS011;39568;51.026;5.468;2023-08-06T06:36:09;3.75;;;3.10;;
53666;SDS011;39568;51.026;5.468;2023-08-06T06:38:36;2.03;;;1.75;;
53666;SDS011;39568;51.026;5.468;2023-08-06T06:41:03;0.90;;;0.90;;
53666;SDS011;39568;51.026;5.468;2023-08-06T06:43:30;0.93;;;0.93;;
53666;SDS011;39568;51.026;5.468;2023-08-06T06:45:58;5.28;;;1.73;;
53666;SDS011;39568;51.026;5.468;2023-08-06T06:48:26;3.15;;;1.52;;
53666;SDS011;39568;51.026;5.468;2023-08-06T06:50:53;3.33;;;1.65;;
53666;SDS011;39568;51.026;5.468;2023-08-06T06:53:20;3.63;;;2.45;;
53666;SDS011;39568;51.026;5.468;2023-08-06T06:55:48;2.67;;;2.47;;
53666;SDS011;39568;51.026;5.468;2023-08-06T06:58:15;3.05;;;2.92;;
53666;SDS011;39568;51.026;5.468;2023-08-06T07:00:41;2.40;;;2.22;;
53666;SDS011;39568;51.026;5.468;2023-08-06T07:03:10;2.70;;;2.53;;
53666;SDS011;39568;51.026;5.468;2023-08-06T07:05:36;2.70;;;2.50;;
53666;SDS011;39568;51.026;5.468;2023-08-06T07:08:03;4.75;;;3.30;;
53666;SDS011;39568;51.026;5.468;2023-08-06T07:10:30;5.53;;;4.05;;
53666;SDS011;39568;51.026;5.468;2023-08-06T07:12:57;5.22;;;3.88;;
53666;SDS011;39568;51.026;5.468;2023-08-06T07:15:23;5.10;;;4.20;;
53666;SDS011;39568;51.026;5.468;2023-08-06T07:17:50;4.53;;;4.13;;
53666;SDS011;39568;51.026;5.468;2023-08-06T07:20:18;4.78;;;4.18;;
53666;SDS011;39568;51.026;5.468;2023-08-06T07:22:45;3.40;;;3.20;;
53666;SDS011;39568;51.026;5.468;2023-08-06T07:25:12;6.68;;;4.47;;
53666;SDS011;39568;51.026;5.468;2023-08-06T07:27:38;16.40;;;3.38;;
53666;SDS011;39568;51.026;5.468;2023-08-06T07:30:05;7.63;;;4.22;;
53666;SDS011;39568;51.026;5.468;2023-08-06T07:32:33;4.93;;;4.45;;
53666;SDS011;39568;51.026;5.468;2023-08-06T07:34:59;7.63;;;4.93;;
53666;SDS011;39568;51.026;5.468;2023-08-06T07:37:29;2.95;;;2.72;;
53666;SDS011;39568;51.026;5.468;2023-08-06T07:39:56;3.78;;;3.20;;
53666;SDS011;39568;51.026;5.468;2023-08-06T07:42:23;4.93;;;3.20;;
53666;SDS011;39568;51.026;5.468;2023-08-06T07:44:51;4.75;;;4.45;;
53666;SDS011;39568;51.026;5.468;2023-08-06T07:47:18;6.15;;;3.22;;
53666;SDS011;39568;51.026;5.468;2023-08-06T07:49:45;5.38;;;3.15;;
53666;SDS011;39568;51.026;5.468;2023-08-06T07:52:12;3.80;;;3.45;;
53666;SDS011;39568;51.026;5.468;2023-08-06T07:54:40;3.60;;;2.10;;
53666;SDS011;39568;51.026;5.468;2023-08-06T07:57:06;1.75;;;1.65;;
53666;SDS011;39568;51.026;5.468;2023-08-06T07:59:33;8.82;;;3.00;;
53666;SDS011;39568;51.026;5.468;2023-08-06T08:02:00;3.75;;;2.90;;
53666;SDS011;39568;51.026;5.468;2023-08-06T08:04:27;2.85;;;1.98;;
53666;SDS011;39568;51.026;5.468;2023-08-06T08:06:53;4.22;;;2.92;;
53666;SDS011;39568;51.026;5.468;2023-08-06T08:09:20;5.93;;;2.03;;
53666;SDS011;39568;51.026;5.468;2023-08-06T08:11:48;4.07;;;2.85;;
53666;SDS011;39568;51.026;5.468;2023-08-06T08:14:15;3.83;;;3.08;;
53666;SDS011;39568;51.026;5.468;2023-08-06T08:16:42;6.68;;;2.42;;
53666;SDS011;39568;51.026;5.468;2023-08-06T08:19:08;2.38;;;2.17;;
53666;SDS011;39568;51.026;5.468;2023-08-06T08:21:35;4.35;;;2.95;;
53666;SDS011;39568;51.026;5.468;2023-08-06T08:24:03;7.95;;;3.88;;
53666;SDS011;39568;51.026;5.468;2023-08-06T08:26:30;13.20;;;2.90;;
53666;SDS011;39568;51.026;5.468;2023-08-06T08:28:58;3.50;;;2.65;;
53666;SDS011;39568;51.026;5.468;2023-08-06T08:31:25;6.25;;;2.83;;
53666;SDS011;39568;51.026;5.468;2023-08-06T08:33:53;2.78;;;1.35;;
53666;SDS011;39568;51.026;5.468;2023-08-06T08:36:20;6.97;;;2.72;;
53666;SDS011;39568;51.026;5.468;2023-08-06T08:38:47;9.20;;;3.08;;
53666;SDS011;39568;51.026;5.468;2023-08-06T08:41:15;7.47;;;3.03;;
53666;SDS011;39568;51.026;5.468;2023-08-06T08:43:43;10.43;;;3.45;;
53666;SDS011;39568;51.026;5.468;2023-08-06T08:46:11;4.07;;;2.00;;
53666;SDS011;39568;51.026;5.468;2023-08-06T08:48:39;2.55;;;2.10;;
53666;SDS011;39568;51.026;5.468;2023-08-06T08:51:05;9.35;;;3.08;;
53666;SDS011;39568;51.026;5.468;2023-08-06T08:53:33;16.15;;;3.08;;
53666;SDS011;39568;51.026;5.468;2023-08-06T08:56:03;7.95;;;1.63;;
53666;SDS011;39568;51.026;5.468;2023-08-06T08:58:31;8.95;;;3.17;;
53666;SDS011;39568;51.026;5.468;2023-08-06T09:00:58;5.32;;;1.95;;
53666;SDS011;39568;51.026;5.468;2023-08-06T09:03:27;6.53;;;1.42;;
53666;SDS011;39568;51.026;5.468;2023-08-06T09:05:54;3.55;;;2.47;;
53666;SDS011;39568;51.026;5.468;2023-08-06T09:08:24;4.93;;;1.98;;
53666;SDS011;39568;51.026;5.468;2023-08-06T09:10:53;6.32;;;1.58;;
53666;SDS011;39568;51.026;5.468;2023-08-06T09:13:21;9.73;;;1.60;;
53666;SDS011;39568;51.026;5.468;2023-08-06T09:15:48;6.97;;;1.77;;
53666;SDS011;39568;51.026;5.468;2023-08-06T09:18:21;13.40;;;2.22;;
53666;SDS011;39568;51.026;5.468;2023-08-06T09:20:53;6.40;;;1.88;;
53666;SDS011;39568;51.026;5.468;2023-08-06T09:23:20;8.30;;;2.85;;
53666;SDS011;39568;51.026;5.468;2023-08-06T09:25:46;12.93;;;2.85;;
53666;SDS011;39568;51.026;5.468;2023-08-06T09:28:13;3.83;;;2.15;;
53666;SDS011;39568;51.026;5.468;2023-08-06T09:30:40;2.53;;;1.52;;
53666;SDS011;39568;51.026;5.468;2023-08-06T09:33:08;7.45;;;1.20;;
53666;SDS011;39568;51.026;5.468;2023-08-06T09:35:35;10.55;;;2.45;;
53666;SDS011;39568;51.026;5.468;2023-08-06T09:38:07;8.40;;;2.20;;
53666;SDS011;39568;51.026;5.468;2023-08-06T09:40:35;6.10;;;2.10;;
53666;SDS011;39568;51.026;5.468;2023-08-06T09:43:02;5.53;;;1.75;;
53666;SDS011;39568;51.026;5.468;2023-08-06T09:45:30;9.57;;;3.05;;
53666;SDS011;39568;51.026;5.468;2023-08-06T09:47:58;6.07;;;2.13;;
53666;SDS011;39568;51.026;5.468;2023-08-06T09:50:27;6.47;;;2.25;;
53666;SDS011;39568;51.026;5.468;2023-08-06T09:52:55;10.68;;;2.05;;
53666;SDS011;39568;51.026;5.468;2023-08-06T09:55:24;5.03;;;3.25;;
53666;SDS011;39568;51.026;5.468;2023-08-06T09:57:51;1.55;;;1.38;;
53666;SDS011;39568;51.026;5.468;2023-08-06T10:00:19;11.98;;;2.53;;
53666;SDS011;39568;51.026;5.468;2023-08-06T10:02:46;4.78;;;1.60;;
53666;SDS011;39568;51.026;5.468;2023-08-06T10:05:13;4.57;;;1.38;;
53666;SDS011;39568;51.026;5.468;2023-08-06T10:07:41;4.93;;;2.00;;
53666;SDS011;39568;51.026;5.468;2023-08-06T10:10:10;2.90;;;1.70;;
53666;SDS011;39568;51.026;5.468;2023-08-06T10:12:38;5.45;;;1.63;;
53666;SDS011;39568;51.026;5.468;2023-08-06T10:15:09;14.50;;;2.13;;
53666;SDS011;39568;51.026;5.468;2023-08-06T10:17:39;3.78;;;1.35;;
53666;SDS011;39568;51.026;5.468;2023-08-06T10:20:07;5.82;;;1.85;;
53666;SDS011;39568;51.026;5.468;2023-08-06T10:22:34;4.95;;;1.60;;
53666;SDS011;39568;51.026;5.468;2023-08-06T10:25:01;2.63;;;1.17;;
53666;SDS011;39568;51.026;5.468;2023-08-06T10:27:31;3.97;;;1.45;;
53666;SDS011;39568;51.026;5.468;2023-08-06T10:32:50;4.45;;;1.42;;
53666;SDS011;39568;51.026;5.468;2023-08-06T10:35:30;4.95;;;1.30;;
53666;SDS011;39568;51.026;5.468;2023-08-06T10:38:03;16.67;;;2.67;;
53666;SDS011;39568;51.026;5.468;2023-08-06T10:40:30;8.23;;;2.03;;
53666;SDS011;39568;51.026;5.468;2023-08-06T10:42:58;2.78;;;2.20;;
53666;SDS011;39568;51.026;5.468;2023-08-06T10:45:27;1.20;;;0.68;;
53666;SDS011;39568;51.026;5.468;2023-08-06T10:47:55;10.88;;;2.13;;
53666;SDS011;39568;51.026;5.468;2023-08-06T10:50:24;11.10;;;1.38;;
53666;SDS011;39568;51.026;5.468;2023-08-06T10:52:50;3.97;;;1.13;;
53666;SDS011;39568;51.026;5.468;2023-08-06T10:55:24;2.30;;;0.65;;
53666;SDS011;39568;51.026;5.468;2023-08-06T10:57:53;7.00;;;1.92;;
53666;SDS011;39568;51.026;5.468;2023-08-06T11:00:20;4.45;;;1.50;;
53666;SDS011;39568;51.026;5.468;2023-08-06T11:02:50;1.38;;;1.27;;
53666;SDS011;39568;51.026;5.468;2023-08-06T11:05:18;3.63;;;1.10;;
53666;SDS011;39568;51.026;5.468;2023-08-06T11:07:45;8.52;;;1.05;;
53666;SDS011;39568;51.026;5.468;2023-08-06T11:10:13;3.80;;;1.08;;
53666;SDS011;39568;51.026;5.468;2023-08-06T11:12:40;5.47;;;1.42;;
53666;SDS011;39568;51.026;5.468;2023-08-06T11:15:07;7.45;;;3.42;;
53666;SDS011;39568;51.026;5.468;2023-08-06T11:17:36;5.10;;;3.00;;
53666;SDS011;39568;51.026;5.468;2023-08-06T11:20:05;2.03;;;1.92;;
53666;SDS011;39568;51.026;5.468;2023-08-06T11:22:32;1.95;;;1.60;;
53666;SDS011;39568;51.026;5.468;2023-08-06T11:24:59;1.45;;;1.27;;
53666;SDS011;39568;51.026;5.468;2023-08-06T11:27:27;7.28;;;1.58;;
53666;SDS011;39568;51.026;5.468;2023-08-06T11:29:54;4.63;;;2.13;;
53666;SDS011;39568;51.026;5.468;2023-08-06T11:32:21;4.78;;;2.20;;
53666;SDS011;39568;51.026;5.468;2023-08-06T11:34:48;6.18;;;2.60;;
53666;SDS011;39568;51.026;5.468;2023-08-06T11:37:16;5.57;;;1.00;;
53666;SDS011;39568;51.026;5.468;2023-08-06T11:39:44;8.15;;;1.98;;
53666;SDS011;39568;51.026;5.468;2023-08-06T11:42:14;2.70;;;1.20;;
53666;SDS011;39568;51.026;5.468;2023-08-06T11:44:41;4.75;;;1.60;;
53666;SDS011;39568;51.026;5.468;2023-08-06T11:47:11;13.43;;;2.33;;
53666;SDS011;39568;51.026;5.468;2023-08-06T11:49:40;2.40;;;2.00;;
53666;SDS011;39568;51.026;5.468;2023-08-06T11:52:20;3.75;;;1.70;;
53666;SDS011;39568;51.026;5.468;2023-08-06T11:54:59;1.10;;;1.00;;
53666;SDS011;39568;51.026;5.468;2023-08-06T11:57:28;2.30;;;1.38;;
53666;SDS011;39568;51.026;5.468;2023-08-06T11:59:57;5.00;;;1.33;;
53666;SDS011;39568;51.026;5.468;2023-08-06T12:02:27;5.78;;;1.10;;
53666;SDS011;39568;51.026;5.468;2023-08-06T12:05:00;2.75;;;1.50;;
53666;SDS011;39568;51.026;5.468;2023-08-06T12:07:32;4.43;;;1.25;;
53666;SDS011;39568;51.026;5.468;2023-08-06T12:10:03;16.58;;;1.80;;
53666;SDS011;39568;51.026;5.468;2023-08-06T12:12:30;1.17;;;1.08;;
53666;SDS011;39568;51.026;5.468;2023-08-06T12:14:57;4.47;;;2.15;;
53666;SDS011;39568;51.026;5.468;2023-08-06T12:17:24;6.38;;;1.08;;
53666;SDS011;39568;51.026;5.468;2023-08-06T12:19:50;13.20;;;1.65;;
53666;SDS011;39568;51.026;5.468;2023-08-06T12:22:17;4.88;;;1.42;;
53666;SDS011;39568;51.026;5.468;2023-08-06T12:24:46;4.38;;;0.95;;
53666;SDS011;39568;51.026;5.468;2023-08-06T12:27:13;5.10;;;1.58;;
53666;SDS011;39568;51.026;5.468;2023-08-06T12:29:40;2.08;;;1.05;;
53666;SDS011;39568;51.026;5.468;2023-08-06T12:32:08;2.50;;;0.57;;
53666;SDS011;39568;51.026;5.468;2023-08-06T12:34:35;1.33;;;0.68;;
53666;SDS011;39568;51.026;5.468;2023-08-06T12:37:02;4.90;;;1.08;;
53666;SDS011;39568;51.026;5.468;2023-08-06T12:39:29;3.72;;;0.73;;
53666;SDS011;39568;51.026;5.468;2023-08-06T12:41:57;3.25;;;0.70;;
53666;SDS011;39568;51.026;5.468;2023-08-06T12:44:25;2.60;;;0.80;;
53666;SDS011;39568;51.026;5.468;2023-08-06T12:46:51;1.42;;;0.85;;
53666;SDS011;39568;51.026;5.468;2023-08-06T12:49:18;0.80;;;0.80;;
53666;SDS011;39568;51.026;5.468;2023-08-06T12:51:47;5.72;;;1.20;;
53666;SDS011;39568;51.026;5.468;2023-08-06T12:54:13;4.57;;;1.42;;
53666;SDS011;39568;51.026;5.468;2023-08-06T12:56:40;1.13;;;0.93;;
53666;SDS011;39568;51.026;5.468;2023-08-06T12:59:08;1.58;;;0.70;;
53666;SDS011;39568;51.026;5.468;2023-08-06T13:01:36;2.72;;;1.20;;
53666;SDS011;39568;51.026;5.468;2023-08-06T13:04:03;2.92;;;1.70;;
53666;SDS011;39568;51.026;5.468;2023-08-06T13:06:30;1.30;;;1.20;;
53666;SDS011;39568;51.026;5.468;2023-08-06T13:09:00;4.10;;;1.08;;
53666;SDS011;39568;51.026;5.468;2023-08-06T13:11:28;3.78;;;1.60;;
53666;SDS011;39568;51.026;5.468;2023-08-06T13:13:55;6.00;;;1.13;;
53666;SDS011;39568;51.026;5.468;2023-08-06T13:16:23;2.72;;;1.20;;
53666;SDS011;39568;51.026;5.468;2023-08-06T13:18:49;2.50;;;0.98;;
53666;SDS011;39568;51.026;5.468;2023-08-06T13:21:16;2.58;;;1.73;;
53666;SDS011;39568;51.026;5.468;2023-08-06T13:23:43;3.97;;;1.05;;
53666;SDS011;39568;51.026;5.468;2023-08-06T13:26:09;4.40;;;0.73;;
53666;SDS011;39568;51.026;5.468;2023-08-06T13:28:36;4.75;;;1.80;;
53666;SDS011;39568;51.026;5.468;2023-08-06T13:31:03;3.45;;;1.55;;
53666;SDS011;39568;51.026;5.468;2023-08-06T13:33:31;5.25;;;1.30;;
53666;SDS011;39568;51.026;5.468;2023-08-06T13:35:57;4.28;;;1.05;;
53666;SDS011;39568;51.026;5.468;2023-08-06T13:38:24;10.10;;;1.23;;
53666;SDS011;39568;51.026;5.468;2023-08-06T13:40:51;7.10;;;1.73;;
53666;SDS011;39568;51.026;5.468;2023-08-06T13:43:17;8.95;;;1.27;;
53666;SDS011;39568;51.026;5.468;2023-08-06T13:45:44;2.67;;;1.33;;
53666;SDS011;39568;51.026;5.468;2023-08-06T13:48:10;5.40;;;1.00;;
53666;SDS011;39568;51.026;5.468;2023-08-06T13:50:39;10.52;;;1.48;;
53666;SDS011;39568;51.026;5.468;2023-08-06T13:53:05;4.47;;;2.67;;
53666;SDS011;39568;51.026;5.468;2023-08-06T13:55:32;2.47;;;1.38;;
53666;SDS011;39568;51.026;5.468;2023-08-06T13:57:59;1.33;;;0.80;;
53666;SDS011;39568;51.026;5.468;2023-08-06T14:00:25;12.15;;;0.98;;
53666;SDS011;39568;51.026;5.468;2023-08-06T14:02:52;3.13;;;0.82;;
53666;SDS011;39568;51.026;5.468;2023-08-06T14:05:19;2.22;;;1.10;;
53666;SDS011;39568;51.026;5.468;2023-08-06T14:07:47;0.93;;;0.70;;
53666;SDS011;39568;51.026;5.468;2023-08-06T14:10:13;8.93;;;0.85;;
53666;SDS011;39568;51.026;5.468;2023-08-06T14:12:40;5.13;;;1.65;;
53666;SDS011;39568;51.026;5.468;2023-08-06T14:15:07;5.85;;;1.45;;
53666;SDS011;39568;51.026;5.468;2023-08-06T14:17:34;3.10;;;0.52;;
53666;SDS011;39568;51.026;5.468;2023-08-06T14:20:01;3.50;;;1.58;;
53666;SDS011;39568;51.026;5.468;2023-08-06T14:22:29;6.10;;;1.52;;
53666;SDS011;39568;51.026;5.468;2023-08-06T14:24:58;5.03;;;1.30;;
53666;SDS011;39568;51.026;5.468;2023-08-06T14:27:24;2.70;;;1.90;;
53666;SDS011;39568;51.026;5.468;2023-08-06T14:29:51;4.10;;;1.70;;
53666;SDS011;39568;51.026;5.468;2023-08-06T14:32:18;8.48;;;0.80;;
53666;SDS011;39568;51.026;5.468;2023-08-06T14:34:45;3.78;;;1.05;;
53666;SDS011;39568;51.026;5.468;2023-08-06T14:37:11;3.95;;;1.30;;
53666;SDS011;39568;51.026;5.468;2023-08-06T14:39:38;1.67;;;0.80;;
53666;SDS011;39568;51.026;5.468;2023-08-06T14:42:07;8.25;;;1.33;;
53666;SDS011;39568;51.026;5.468;2023-08-06T14:44:36;0.88;;;0.60;;
53666;SDS011;39568;51.026;5.468;2023-08-06T14:47:06;1.67;;;0.60;;
53666;SDS011;39568;51.026;5.468;2023-08-06T14:49:41;0.35;;;0.35;;
53666;SDS011;39568;51.026;5.468;2023-08-06T14:52:07;5.75;;;1.00;;
53666;SDS011;39568;51.026;5.468;2023-08-06T14:54:34;1.85;;;0.90;;
53666;SDS011;39568;51.026;5.468;2023-08-06T14:57:00;5.47;;;1.05;;